createdAt,value
2022-09-14T00:01:23.745Z,14.96
2022-09-14T00:02:25.911Z,14.90
2022-09-14T00:03:27.838Z,14.85
2022-09-14T00:04:32.285Z,14.78
2022-09-14T00:05:37.205Z,14.72
2022-09-14T00:06:41.673Z,14.67
2022-09-14T00:07:43.449Z,14.58
2022-09-14T00:08:47.836Z,14.59
2022-09-14T00:09:51.256Z,14.53
2022-09-14T00:10:55.646Z,14.49
2022-09-14T00:11:57.933Z,14.48
2022-09-14T00:13:02.945Z,14.46
2022-09-14T00:14:05.225Z,14.45
2022-09-14T00:15:09.828Z,14.45
2022-09-14T00:16:13.165Z,14.43
2022-09-14T00:17:17.969Z,14.43
2022-09-14T00:18:19.796Z,14.43
2022-09-14T00:19:25.172Z,14.42
2022-09-14T00:20:26.942Z,14.41
2022-09-14T00:21:31.414Z,14.39
2022-09-14T00:22:33.386Z,14.36
2022-09-14T00:23:38.372Z,14.33
2022-09-14T00:24:40.136Z,14.30
2022-09-14T00:25:44.562Z,14.25
2022-09-14T00:26:46.353Z,14.21
2022-09-14T00:27:50.835Z,14.16
2022-09-14T00:28:54.059Z,14.11
2022-09-14T00:29:58.414Z,14.07
2022-09-14T00:31:00.257Z,14.01
2022-09-14T00:32:05.022Z,13.97
2022-09-14T00:33:07.245Z,13.94
2022-09-14T00:34:12.124Z,13.90
2022-09-14T00:35:13.875Z,13.89
2022-09-14T00:36:19.506Z,13.88
2022-09-14T00:37:21.310Z,13.88
2022-09-14T00:38:25.671Z,13.90
2022-09-14T00:39:30.833Z,13.92
2022-09-14T00:40:32.585Z,13.95
2022-09-14T00:41:37.935Z,13.99
2022-09-14T00:42:39.787Z,14.04
2022-09-14T00:43:56.453Z,14.09
2022-09-14T00:44:59.463Z,14.16
2022-09-14T00:46:04.662Z,14.22
2022-09-14T00:47:06.505Z,14.27
2022-09-14T00:48:11.124Z,14.32
2022-09-14T00:49:13.866Z,14.39
2022-09-14T00:50:18.281Z,14.45
2022-09-14T00:51:20.093Z,14.51
2022-09-14T00:52:28.486Z,14.55
2022-09-14T00:53:30.966Z,14.62
2022-09-14T00:54:35.366Z,14.68
2022-09-14T00:55:37.446Z,14.71
2022-09-14T00:56:41.953Z,14.74
2022-09-14T00:57:44.860Z,14.79
2022-09-14T00:58:50.976Z,14.84
2022-09-14T00:59:53.454Z,14.88
2022-09-14T01:00:59.040Z,14.92
2022-09-14T01:02:00.883Z,14.94
2022-09-14T01:03:05.247Z,14.98
2022-09-14T01:04:07.146Z,15.01
2022-09-14T01:05:12.022Z,15.05
2022-09-14T01:06:29.714Z,15.07
2022-09-14T01:07:42.163Z,15.10
2022-09-14T01:08:44.013Z,15.12
2022-09-14T01:10:00.564Z,15.14
2022-09-14T01:11:08.493Z,15.17
2022-09-14T01:12:24.173Z,15.18
2022-09-14T01:13:29.013Z,15.20
2022-09-14T01:14:33.758Z,15.21
2022-09-14T01:15:54.706Z,15.22
2022-09-14T01:17:08.246Z,15.25
2022-09-14T01:18:17.009Z,15.27
2022-09-14T01:19:27.994Z,15.28
2022-09-14T01:20:36.537Z,15.30
2022-09-14T01:21:42.143Z,15.30
2022-09-14T01:22:46.925Z,15.33
2022-09-14T01:23:51.202Z,15.35
2022-09-14T01:24:54.525Z,15.36
2022-09-14T01:25:59.109Z,15.38
2022-09-14T01:27:22.373Z,15.39
2022-09-14T01:28:26.659Z,15.40
2022-09-14T01:29:33.932Z,15.40
2022-09-14T01:30:35.826Z,15.39
2022-09-14T01:31:41.835Z,15.39
2022-09-14T01:32:58.825Z,15.37
2022-09-14T01:34:05.477Z,15.36
2022-09-14T01:35:28.144Z,15.36
2022-09-14T01:36:30.006Z,15.37
2022-09-14T01:37:36.845Z,15.38
2022-09-14T01:38:39.769Z,15.39
2022-09-14T01:39:48.675Z,15.41
2022-09-14T01:40:50.488Z,15.44
2022-09-14T01:41:54.868Z,15.45
2022-09-14T01:43:02.134Z,15.47
2022-09-14T01:44:06.569Z,15.49
2022-09-14T01:45:09.516Z,15.50
2022-09-14T01:46:15.321Z,15.53
2022-09-14T01:47:20.506Z,15.53
2022-09-14T01:48:26.684Z,15.53
2022-09-14T01:49:32.634Z,15.54
2022-09-14T01:50:37.101Z,15.54
2022-09-14T01:51:38.889Z,15.54
2022-09-14T01:52:47.793Z,15.52
2022-09-14T01:54:01.066Z,15.46
2022-09-14T01:55:24.366Z,15.42
2022-09-14T01:56:27.851Z,15.38
2022-09-14T01:57:37.818Z,15.37
2022-09-14T01:58:50.811Z,15.35
2022-09-14T01:59:56.241Z,15.35
2022-09-14T02:00:58.093Z,15.33
2022-09-14T02:02:06.838Z,15.31
2022-09-14T02:03:12.956Z,15.32
2022-09-14T02:04:18.005Z,15.31
2022-09-14T02:05:21.836Z,15.32
2022-09-14T02:06:28.125Z,15.32
2022-09-14T02:07:29.942Z,15.31
2022-09-14T02:08:34.280Z,15.33
2022-09-14T02:09:36.113Z,15.36
2022-09-14T02:10:40.610Z,15.38
2022-09-14T02:11:42.406Z,15.40
2022-09-14T02:12:46.888Z,15.33
2022-09-14T02:13:48.661Z,15.40
2022-09-14T02:14:53.265Z,15.42
2022-09-14T02:15:55.219Z,15.44
2022-09-14T02:16:59.623Z,15.44
2022-09-14T02:18:01.519Z,15.46
2022-09-14T02:19:06.402Z,15.46
2022-09-14T02:20:11.009Z,15.46
2022-09-14T02:21:17.207Z,15.49
2022-09-14T02:22:19.105Z,15.52
2022-09-14T02:23:23.537Z,15.56
2022-09-14T02:24:25.808Z,15.61
2022-09-14T02:25:31.167Z,15.63
2022-09-14T02:26:33.181Z,15.68
2022-09-14T02:27:37.526Z,15.71
2022-09-14T02:28:39.365Z,15.75
2022-09-14T02:29:43.744Z,15.79
2022-09-14T02:30:51.586Z,15.83
2022-09-14T02:32:01.076Z,15.86
2022-09-14T02:33:08.392Z,15.90
2022-09-14T02:34:20.302Z,15.93
2022-09-14T02:35:28.072Z,15.95
2022-09-14T02:36:50.906Z,15.98
2022-09-14T02:38:10.463Z,16.01
2022-09-14T02:39:33.335Z,16.02
2022-09-14T02:40:45.229Z,16.02
2022-09-14T02:42:02.436Z,16.03
2022-09-14T02:43:12.948Z,16.06
2022-09-14T02:44:18.213Z,16.05
2022-09-14T02:45:35.531Z,16.06
2022-09-14T02:46:39.071Z,16.05
2022-09-14T02:47:46.088Z,16.08
2022-09-14T02:49:08.773Z,16.09
2022-09-14T02:50:14.193Z,16.10
2022-09-14T02:51:24.702Z,16.11
2022-09-14T02:52:42.364Z,16.09
2022-09-14T02:53:45.518Z,16.10
2022-09-14T02:55:10.525Z,16.07
2022-09-14T02:56:12.295Z,16.09
2022-09-14T02:57:16.643Z,16.07
2022-09-14T02:58:18.500Z,16.08
2022-09-14T02:59:22.828Z,16.06
2022-09-14T03:00:24.593Z,16.05
2022-09-14T03:01:28.964Z,16.03
2022-09-14T03:02:30.760Z,16.03
2022-09-14T03:03:35.911Z,16.04
2022-09-14T03:04:37.840Z,16.02
2022-09-14T03:05:42.199Z,16.02
2022-09-14T03:06:44.073Z,16.01
2022-09-14T03:07:48.428Z,16.03
2022-09-14T03:08:50.315Z,16.03
2022-09-14T03:09:54.821Z,16.03
2022-09-14T03:10:56.978Z,16.04
2022-09-14T03:12:01.325Z,16.04
2022-09-14T03:13:03.181Z,16.05
2022-09-14T03:14:07.516Z,16.04
2022-09-14T03:15:09.509Z,16.03
2022-09-14T03:16:15.123Z,16.01
2022-09-14T03:17:16.952Z,16.00
2022-09-14T03:18:21.318Z,15.98
2022-09-14T03:19:23.167Z,15.98
2022-09-14T03:20:28.971Z,15.99
2022-09-14T03:21:30.743Z,15.98
2022-09-14T03:22:35.433Z,15.98
2022-09-14T03:23:43.945Z,15.97
2022-09-14T03:24:45.732Z,15.96
2022-09-14T03:25:50.186Z,15.95
2022-09-14T03:26:52.329Z,15.95
2022-09-14T03:27:57.753Z,15.89
2022-09-14T03:28:59.507Z,15.90
2022-09-14T03:30:03.914Z,15.95
2022-09-14T03:31:06.570Z,15.95
2022-09-14T03:32:12.310Z,15.95
2022-09-14T03:33:15.457Z,15.95
2022-09-14T03:34:19.803Z,15.91
2022-09-14T03:35:21.600Z,15.89
2022-09-14T03:36:26.465Z,15.89
2022-09-14T03:37:28.267Z,15.88
2022-09-14T03:38:32.677Z,15.89
2022-09-14T03:39:34.445Z,15.89
2022-09-14T03:40:38.880Z,15.90
2022-09-14T03:41:40.804Z,15.90
2022-09-14T03:42:46.124Z,15.91
2022-09-14T03:43:48.155Z,15.90
2022-09-14T03:44:52.666Z,15.90
2022-09-14T03:45:54.420Z,15.91
2022-09-14T03:46:58.924Z,15.91
2022-09-14T03:48:01.424Z,15.89
2022-09-14T03:49:05.841Z,15.88
2022-09-14T03:50:08.286Z,15.85
2022-09-14T03:51:13.293Z,15.83
2022-09-14T03:52:15.067Z,15.79
2022-09-14T03:53:19.545Z,15.78
2022-09-14T03:54:21.338Z,15.75
2022-09-14T03:55:25.766Z,15.75
2022-09-14T03:56:27.684Z,15.74
2022-09-14T03:57:32.854Z,15.71
2022-09-14T03:58:34.726Z,15.70
2022-09-14T03:59:43.498Z,15.71
2022-09-14T04:00:45.561Z,15.70
2022-09-14T04:01:50.105Z,15.70
2022-09-14T04:02:52.008Z,15.70
2022-09-14T04:03:56.479Z,15.68
2022-09-14T04:04:58.488Z,15.67
2022-09-14T04:06:05.459Z,15.66
2022-09-14T04:07:07.690Z,15.64
2022-09-14T04:08:12.037Z,15.64
2022-09-14T04:09:16.419Z,15.62
2022-09-14T04:10:18.299Z,15.61
2022-09-14T04:11:23.614Z,15.54
2022-09-14T04:12:25.427Z,15.57
2022-09-14T04:13:29.798Z,15.56
2022-09-14T04:14:31.599Z,15.54
2022-09-14T04:15:35.989Z,15.49
2022-09-14T04:16:37.831Z,15.46
2022-09-14T04:17:42.777Z,15.43
2022-09-14T04:18:44.964Z,15.38
2022-09-14T04:19:49.342Z,15.35
2022-09-14T04:20:54.695Z,15.29
2022-09-14T04:21:59.106Z,15.26
2022-09-14T04:23:00.986Z,15.24
2022-09-14T04:24:21.176Z,15.22
2022-09-14T04:25:23.326Z,15.19
2022-09-14T04:26:29.373Z,15.17
2022-09-14T04:27:31.246Z,15.17
2022-09-14T04:28:35.605Z,15.16
2022-09-14T04:29:37.514Z,15.16
2022-09-14T04:30:41.897Z,15.17
2022-09-14T04:31:43.755Z,15.18
2022-09-14T04:32:48.223Z,15.19
2022-09-14T04:33:51.340Z,15.20
2022-09-14T04:34:55.721Z,15.25
2022-09-14T04:35:58.653Z,15.28
2022-09-14T04:37:03.078Z,15.35
2022-09-14T04:38:04.966Z,15.41
2022-09-14T04:39:09.670Z,15.49
2022-09-14T04:40:11.553Z,15.56
2022-09-14T04:41:17.365Z,15.61
2022-09-14T04:42:19.462Z,15.68
2022-09-14T04:43:23.805Z,15.73
2022-09-14T04:44:25.834Z,15.78
2022-09-14T04:45:30.733Z,15.82
2022-09-14T04:46:35.057Z,15.87
2022-09-14T04:47:39.509Z,15.92
2022-09-14T04:48:41.841Z,15.94
2022-09-14T04:49:46.237Z,15.95
2022-09-14T04:50:48.041Z,16.01
2022-09-14T04:51:52.489Z,16.02
2022-09-14T04:52:54.298Z,16.04
2022-09-14T04:53:59.407Z,16.07
2022-09-14T04:55:01.652Z,16.12
2022-09-14T04:56:07.126Z,16.14
2022-09-14T04:57:08.907Z,16.20
2022-09-14T04:58:13.449Z,16.24
2022-09-14T04:59:18.119Z,16.30
2022-09-14T05:00:20.014Z,16.35
2022-09-14T05:01:26.123Z,16.40
2022-09-14T05:02:28.051Z,16.48
2022-09-14T05:03:32.501Z,16.58
2022-09-14T05:04:34.265Z,16.71
2022-09-14T05:05:44.321Z,16.83
2022-09-14T05:06:46.726Z,16.92
2022-09-14T05:07:51.133Z,17.06
2022-09-14T05:08:53.094Z,17.13
2022-09-14T05:09:57.574Z,17.18
2022-09-14T05:10:59.386Z,17.19
2022-09-14T05:12:03.797Z,17.19
2022-09-14T05:13:05.561Z,17.21
2022-09-14T05:14:09.982Z,17.23
2022-09-14T05:15:11.854Z,17.25
2022-09-14T05:16:23.161Z,17.26
2022-09-14T05:17:25.074Z,17.29
2022-09-14T05:18:29.457Z,17.35
2022-09-14T05:19:31.470Z,17.39
2022-09-14T05:20:39.059Z,17.45
2022-09-14T05:21:40.997Z,17.50
2022-09-14T05:22:45.454Z,17.56
2022-09-14T05:23:47.353Z,17.62
2022-09-14T05:24:51.773Z,17.69
2022-09-14T05:25:53.914Z,17.80
2022-09-14T05:27:01.582Z,17.92
2022-09-14T05:28:04.071Z,18.04
2022-09-14T05:29:08.545Z,18.13
2022-09-14T05:30:10.680Z,18.18
2022-09-14T05:31:17.219Z,18.21
2022-09-14T05:32:19.191Z,18.21
2022-09-14T05:33:23.689Z,18.19
2022-09-14T05:34:25.467Z,18.16
2022-09-14T05:35:29.893Z,18.13
2022-09-14T05:36:31.649Z,18.13
2022-09-14T05:37:36.019Z,18.14
2022-09-14T05:38:39.173Z,18.16
2022-09-14T05:39:43.634Z,18.18
2022-09-14T05:40:46.412Z,18.18
2022-09-14T05:41:51.979Z,18.18
2022-09-14T05:42:53.762Z,18.11
2022-09-14T05:43:58.385Z,18.12
2022-09-14T05:45:00.160Z,18.10
2022-09-14T05:46:12.352Z,18.08
2022-09-14T05:47:16.825Z,18.03
2022-09-14T05:48:18.863Z,17.98
2022-09-14T05:49:25.290Z,17.90
2022-09-14T05:50:27.080Z,17.89
2022-09-14T05:51:31.473Z,17.79
2022-09-14T05:52:33.302Z,17.75
2022-09-14T05:53:37.818Z,17.70
2022-09-14T05:54:39.626Z,17.61
2022-09-14T05:55:44.119Z,17.63
2022-09-14T05:56:45.920Z,17.63
2022-09-14T05:57:53.764Z,17.65
2022-09-14T05:58:56.343Z,17.65
2022-09-14T06:00:00.725Z,17.67
2022-09-14T06:01:09.851Z,17.66
2022-09-14T06:02:17.530Z,17.70
2022-09-14T06:03:20.690Z,17.72
2022-09-14T06:04:25.115Z,17.77
2022-09-14T06:05:28.275Z,17.81
2022-09-14T06:06:33.392Z,17.83
2022-09-14T06:07:35.330Z,17.86
2022-09-14T06:08:39.668Z,17.87
2022-09-14T06:09:42.669Z,17.89
2022-09-14T06:10:46.993Z,17.90
2022-09-14T06:11:48.858Z,17.90
2022-09-14T06:12:55.448Z,17.91
2022-09-14T06:13:57.453Z,17.93
2022-09-14T06:15:01.902Z,17.89
2022-09-14T06:16:05.949Z,17.91
2022-09-14T06:17:10.290Z,17.89
2022-09-14T06:18:12.186Z,17.92
2022-09-14T06:19:16.542Z,17.94
2022-09-14T06:20:18.909Z,17.93
2022-09-14T06:21:23.367Z,17.91
2022-09-14T06:22:25.216Z,17.97
2022-09-14T06:23:31.020Z,17.79
2022-09-14T06:24:35.846Z,17.83
2022-09-14T06:25:37.613Z,17.82
2022-09-14T06:26:42.277Z,17.81
2022-09-14T06:27:44.191Z,17.76
2022-09-14T06:28:48.697Z,17.70
2022-09-14T06:29:52.332Z,17.58
2022-09-14T06:30:56.686Z,17.52
2022-09-14T06:32:01.113Z,17.54
2022-09-14T06:33:04.781Z,17.54
2022-09-14T06:34:09.156Z,17.54
2022-09-14T06:35:12.547Z,17.43
2022-09-14T06:36:19.705Z,17.35
2022-09-14T06:37:21.563Z,17.37
2022-09-14T06:38:26.002Z,17.40
2022-09-14T06:39:30.487Z,17.41
2022-09-14T06:40:32.385Z,17.42
2022-09-14T06:41:37.219Z,17.44
2022-09-14T06:42:39.010Z,17.46
2022-09-14T06:43:43.868Z,17.35
2022-09-14T06:44:49.759Z,17.35
2022-09-14T06:45:58.489Z,17.26
2022-09-14T06:47:02.946Z,17.27
2022-09-14T06:48:04.728Z,17.29
2022-09-14T06:49:10.694Z,17.25
2022-09-14T06:50:13.147Z,17.36
2022-09-14T06:51:21.674Z,17.40
2022-09-14T06:52:23.469Z,17.46
2022-09-14T06:53:27.860Z,17.56
2022-09-14T06:54:29.709Z,17.67
2022-09-14T06:55:34.064Z,17.80
2022-09-14T06:56:39.478Z,17.94
2022-09-14T06:57:43.131Z,18.01
2022-09-14T06:58:47.866Z,18.10
2022-09-14T06:59:49.664Z,18.12
2022-09-14T07:00:54.013Z,18.23
2022-09-14T07:01:58.491Z,18.32
2022-09-14T07:03:00.378Z,18.42
2022-09-14T07:04:05.382Z,18.48
2022-09-14T07:05:07.380Z,18.39
2022-09-14T07:06:38.443Z,18.41
2022-09-14T07:07:40.309Z,18.57
2022-09-14T07:08:44.723Z,18.62
2022-09-14T07:09:49.178Z,18.71
2022-09-14T07:10:57.943Z,18.76
2022-09-14T07:12:02.301Z,18.77
2022-09-14T07:13:04.053Z,18.82
2022-09-14T07:14:08.716Z,18.92
2022-09-14T07:15:10.537Z,18.96
2022-09-14T07:16:14.962Z,19.02
2022-09-14T07:17:20.046Z,18.98
2022-09-14T07:18:23.237Z,18.98
2022-09-14T07:19:27.585Z,18.94
2022-09-14T07:20:29.454Z,19.00
2022-09-14T07:21:34.445Z,19.04
2022-09-14T07:22:36.498Z,19.02
2022-09-14T07:23:41.768Z,19.10
2022-09-14T07:24:43.541Z,19.19
2022-09-14T07:25:48.037Z,19.19
2022-09-14T07:26:52.520Z,19.16
2022-09-14T07:27:54.388Z,19.23
2022-09-14T07:29:01.190Z,19.23
2022-09-14T07:30:03.984Z,19.18
2022-09-14T07:31:08.886Z,19.13
2022-09-14T07:32:13.332Z,19.16
2022-09-14T07:33:15.209Z,19.20
2022-09-14T07:34:20.627Z,19.18
2022-09-14T07:35:22.521Z,19.24
2022-09-14T07:36:30.417Z,19.20
2022-09-14T07:37:37.985Z,19.14
2022-09-14T07:38:55.080Z,19.08
2022-09-14T07:40:00.360Z,19.11
2022-09-14T07:41:02.302Z,19.13
2022-09-14T07:42:06.804Z,19.15
2022-09-14T07:43:08.603Z,19.17
2022-09-14T07:44:15.228Z,19.12
2022-09-14T07:45:17.041Z,19.06
2022-09-14T07:46:21.962Z,19.01
2022-09-14T07:47:23.905Z,18.95
2022-09-14T07:48:28.348Z,18.95
2022-09-14T07:49:32.792Z,18.96
2022-09-14T07:50:34.603Z,19.02
2022-09-14T07:51:39.338Z,19.02
2022-09-14T07:52:41.238Z,19.08
2022-09-14T07:53:46.026Z,19.01
2022-09-14T07:54:47.842Z,18.76
2022-09-14T07:55:52.247Z,18.81
2022-09-14T07:56:56.670Z,18.76
2022-09-14T07:57:58.906Z,18.69
2022-09-14T07:59:30.868Z,18.63
2022-09-14T08:00:28.537Z,18.56
2022-09-14T08:01:30.421Z,18.49
2022-09-14T08:02:35.018Z,18.45
2022-09-14T08:03:37.034Z,18.32
2022-09-14T08:04:42.632Z,18.36
2022-09-14T08:05:44.473Z,18.38
2022-09-14T08:06:48.796Z,18.49
2022-09-14T08:07:54.150Z,18.50
2022-09-14T08:08:58.678Z,18.62
2022-09-14T08:10:03.040Z,18.74
2022-09-14T08:11:05.939Z,18.85
2022-09-14T08:12:10.465Z,19.04
2022-09-14T08:13:12.917Z,19.31
2022-09-14T08:14:17.272Z,19.53
2022-09-14T08:15:19.484Z,19.74
2022-09-14T08:16:24.432Z,19.95
2022-09-14T08:17:28.838Z,20.11
2022-09-14T08:18:32.176Z,20.21
2022-09-14T08:19:36.519Z,20.26
2022-09-14T08:20:38.265Z,20.20
2022-09-14T08:21:46.583Z,20.22
2022-09-14T08:22:51.786Z,20.37
2022-09-14T08:23:54.007Z,20.50
2022-09-14T08:24:58.348Z,20.58
2022-09-14T08:26:10.110Z,20.73
2022-09-14T08:27:17.147Z,20.81
2022-09-14T08:28:19.273Z,20.92
2022-09-14T08:29:23.781Z,20.91
2022-09-14T08:30:25.573Z,20.97
2022-09-14T08:31:30.552Z,21.03
2022-09-14T08:32:32.458Z,21.09
2022-09-14T08:33:37.253Z,20.96
2022-09-14T08:34:41.741Z,21.02
2022-09-14T08:35:57.399Z,21.04
2022-09-14T08:37:03.086Z,20.95
2022-09-14T08:38:04.882Z,20.91
2022-09-14T08:39:10.478Z,20.84
2022-09-14T08:40:13.142Z,20.89
2022-09-14T08:41:37.898Z,20.84
2022-09-14T08:42:41.327Z,20.77
2022-09-14T08:43:45.690Z,20.67
2022-09-14T08:44:52.074Z,20.58
2022-09-14T08:45:55.605Z,20.58
2022-09-14T08:47:03.214Z,20.56
2022-09-14T08:48:05.098Z,20.53
2022-09-14T08:49:13.014Z,20.52
2022-09-14T08:50:18.791Z,20.63
2022-09-14T08:51:23.151Z,20.75
2022-09-14T08:52:25.008Z,20.81
2022-09-14T08:53:29.389Z,20.92
2022-09-14T08:54:31.721Z,21.10
2022-09-14T08:55:39.145Z,21.32
2022-09-14T08:56:42.250Z,21.60
2022-09-14T08:57:48.185Z,21.89
2022-09-14T08:59:03.384Z,22.13
2022-09-14T09:00:13.233Z,22.41
2022-09-14T09:01:29.848Z,22.72
2022-09-14T09:02:31.638Z,22.92
2022-09-14T09:03:55.057Z,23.10
2022-09-14T09:04:56.790Z,23.32
2022-09-14T09:06:05.338Z,23.44
2022-09-14T09:07:15.531Z,23.54
2022-09-14T09:08:36.117Z,23.64
2022-09-14T09:09:44.164Z,23.64
2022-09-14T09:10:45.910Z,23.56
2022-09-14T09:11:51.046Z,23.49
2022-09-14T09:12:53.832Z,23.26
2022-09-14T09:13:58.234Z,23.21
2022-09-14T09:15:01.178Z,23.08
2022-09-14T09:16:07.626Z,22.85
2022-09-14T09:17:20.947Z,22.71
2022-09-14T09:18:26.621Z,22.62
2022-09-14T09:19:33.022Z,22.54
2022-09-14T09:20:38.771Z,22.50
2022-09-14T09:21:41.622Z,22.55
2022-09-14T09:22:46.758Z,22.49
2022-09-14T09:23:48.732Z,22.47
2022-09-14T09:24:54.361Z,22.44
2022-09-14T09:26:17.188Z,22.34
2022-09-14T09:27:21.663Z,22.22
2022-09-14T09:28:26.728Z,22.12
2022-09-14T09:29:28.527Z,22.00
2022-09-14T09:30:48.019Z,21.85
2022-09-14T09:31:53.161Z,21.90
2022-09-14T09:33:23.516Z,21.84
2022-09-14T09:34:40.778Z,21.75
2022-09-14T09:35:56.254Z,21.67
2022-09-14T09:37:02.453Z,21.76
2022-09-14T09:38:10.791Z,21.80
2022-09-14T09:39:15.533Z,21.75
2022-09-14T09:40:26.217Z,21.78
2022-09-14T09:41:28.487Z,21.83
2022-09-14T09:42:32.946Z,21.96
2022-09-14T09:43:49.049Z,22.02
2022-09-14T09:45:03.175Z,22.02
2022-09-14T09:46:07.727Z,22.08
2022-09-14T09:47:12.201Z,22.01
2022-09-14T09:48:14.593Z,22.06
2022-09-14T09:49:23.358Z,22.20
2022-09-14T09:50:26.321Z,22.05
2022-09-14T09:51:31.536Z,21.98
2022-09-14T09:52:34.801Z,21.95
2022-09-14T09:53:40.687Z,22.01
2022-09-14T09:54:43.443Z,21.99
2022-09-14T09:55:49.784Z,21.89
2022-09-14T09:56:51.585Z,21.87
2022-09-14T09:57:56.581Z,21.88
2022-09-14T09:59:01.158Z,21.88
2022-09-14T10:00:09.136Z,21.78
2022-09-14T10:01:24.266Z,21.72
2022-09-14T10:02:26.140Z,21.79
2022-09-14T10:03:32.737Z,21.80
2022-09-14T10:04:37.253Z,21.84
2022-09-14T10:05:39.047Z,21.97
2022-09-14T10:06:44.318Z,22.00
2022-09-14T10:07:48.926Z,22.09
2022-09-14T10:08:53.314Z,22.23
2022-09-14T10:10:23.921Z,22.37
2022-09-14T10:11:36.688Z,22.56
2022-09-14T10:12:39.570Z,22.76
2022-09-14T10:13:43.966Z,22.66
2022-09-14T10:14:49.192Z,22.47
2022-09-14T10:15:54.247Z,22.52
2022-09-14T10:17:04.162Z,22.53
2022-09-14T10:18:17.758Z,22.55
2022-09-14T10:19:26.113Z,22.67
2022-09-14T10:20:30.618Z,22.71
2022-09-14T10:21:34.977Z,22.79
2022-09-14T10:22:41.330Z,22.96
2022-09-14T10:23:43.174Z,23.09
2022-09-14T10:25:05.346Z,23.10
2022-09-14T10:26:13.426Z,23.31
2022-09-14T10:27:37.131Z,23.39
2022-09-14T10:28:51.912Z,23.34
2022-09-14T10:29:53.710Z,23.42
2022-09-14T10:31:02.374Z,23.19
2022-09-14T10:32:07.296Z,23.30
2022-09-14T10:33:12.735Z,23.35
2022-09-14T10:34:17.437Z,23.30
2022-09-14T10:35:22.084Z,23.43
2022-09-14T10:36:26.413Z,23.50
2022-09-14T10:37:33.645Z,23.44
2022-09-14T10:38:47.930Z,23.54
2022-09-14T10:40:12.876Z,23.57
2022-09-14T10:41:32.023Z,23.63
2022-09-14T10:42:35.674Z,23.81
2022-09-14T10:43:46.088Z,23.82
2022-09-14T10:45:00.112Z,23.71
2022-09-14T10:46:05.469Z,23.85
2022-09-14T10:47:10.342Z,24.06
2022-09-14T10:48:17.733Z,24.11
2022-09-14T10:49:37.967Z,24.11
2022-09-14T10:50:48.683Z,24.16
2022-09-14T10:51:53.058Z,24.37
2022-09-14T10:52:57.330Z,24.37
2022-09-14T10:54:04.294Z,24.31
2022-09-14T10:55:25.572Z,24.49
2022-09-14T10:56:32.503Z,24.47
2022-09-14T10:57:38.908Z,24.24
2022-09-14T10:59:22.714Z,24.31
2022-09-14T11:00:27.199Z,24.26
2022-09-14T11:01:48.387Z,24.17
2022-09-14T11:03:11.551Z,24.09
2022-09-14T11:04:21.190Z,24.01
2022-09-14T11:05:27.283Z,23.96
2022-09-14T11:06:50.378Z,23.91
2022-09-14T11:07:54.634Z,23.69
2022-09-14T11:09:02.613Z,23.62
2022-09-14T11:10:07.197Z,23.48
2022-09-14T11:11:14.706Z,23.43
2022-09-14T11:12:22.763Z,23.41
2022-09-14T11:13:34.835Z,23.23
2022-09-14T11:14:39.981Z,23.14
2022-09-14T11:15:59.296Z,23.13
2022-09-14T11:17:28.861Z,22.88
2022-09-14T11:18:38.299Z,22.90
2022-09-14T11:19:46.011Z,22.86
2022-09-14T11:20:48.002Z,22.83
2022-09-14T11:21:52.383Z,22.71
2022-09-14T11:23:20.184Z,22.64
2022-09-14T11:24:43.406Z,22.74
2022-09-14T11:25:48.869Z,22.48
2022-09-14T11:26:55.110Z,22.53
2022-09-14T11:28:03.774Z,22.66
2022-09-14T11:29:13.162Z,22.48
2022-09-14T11:30:18.625Z,22.60
2022-09-14T11:31:23.181Z,22.68
2022-09-14T11:32:31.109Z,22.58
2022-09-14T11:33:37.338Z,22.45
2022-09-14T11:34:43.675Z,22.51
2022-09-14T11:36:11.315Z,22.45
2022-09-14T11:37:14.843Z,22.38
2022-09-14T11:38:23.304Z,22.27
2022-09-14T11:39:29.397Z,22.18
2022-09-14T11:40:36.243Z,22.25
2022-09-14T11:41:39.913Z,22.30
2022-09-14T11:42:49.401Z,22.25
2022-09-14T11:43:54.109Z,22.19
2022-09-14T11:45:01.290Z,22.18
2022-09-14T11:46:06.272Z,22.12
2022-09-14T11:47:18.209Z,22.00
2022-09-14T11:48:42.388Z,21.83
2022-09-14T11:49:47.206Z,21.97
2022-09-14T11:50:51.725Z,21.98
2022-09-14T11:52:04.673Z,22.03
2022-09-14T11:53:13.595Z,22.09
2022-09-14T11:54:18.858Z,22.19
2022-09-14T11:55:21.667Z,22.30
2022-09-14T11:56:30.056Z,22.42
2022-09-14T11:57:32.700Z,22.48
2022-09-14T11:58:37.174Z,22.68
2022-09-14T11:59:42.087Z,22.78
2022-09-14T12:00:52.441Z,22.51
2022-09-14T12:01:54.208Z,22.44
2022-09-14T12:03:07.944Z,22.33
2022-09-14T12:04:16.762Z,22.13
2022-09-14T12:05:21.302Z,22.06
2022-09-14T12:06:28.920Z,21.87
2022-09-14T12:07:56.479Z,21.75
2022-09-14T12:09:21.124Z,21.74
2022-09-14T12:10:22.954Z,21.69
2022-09-14T12:11:28.735Z,21.64
2022-09-14T12:12:31.800Z,21.59
2022-09-14T12:13:36.137Z,21.54
2022-09-14T12:14:40.735Z,21.38
2022-09-14T12:15:45.248Z,21.27
2022-09-14T12:17:22.580Z,21.22
2022-09-14T12:18:30.306Z,21.30
2022-09-14T12:19:32.609Z,21.33
2022-09-14T12:20:40.530Z,21.35
2022-09-14T12:21:42.404Z,21.40
2022-09-14T12:22:49.987Z,21.51
2022-09-14T12:23:57.988Z,21.49
2022-09-14T12:25:02.614Z,21.52
2022-09-14T12:26:13.077Z,21.57
2022-09-14T12:27:18.513Z,21.64
2022-09-14T12:28:35.548Z,21.72
2022-09-14T12:29:40.033Z,21.78
2022-09-14T12:30:41.762Z,21.90
2022-09-14T12:31:49.638Z,22.01
2022-09-14T12:32:51.644Z,22.00
2022-09-14T12:34:08.638Z,22.02
2022-09-14T12:35:31.540Z,22.02
2022-09-14T12:36:33.541Z,21.95
2022-09-14T12:37:37.928Z,21.88
2022-09-14T12:38:43.647Z,21.81
2022-09-14T12:40:08.180Z,21.87
2022-09-14T12:41:10.094Z,21.79
2022-09-14T12:42:32.220Z,21.83
2022-09-14T12:43:34.201Z,21.90
2022-09-14T12:44:38.681Z,21.95
2022-09-14T12:46:02.632Z,21.99
2022-09-14T12:47:30.236Z,21.96
2022-09-14T12:48:51.024Z,22.00
2022-09-14T12:49:53.486Z,22.05
2022-09-14T12:50:57.874Z,22.09
2022-09-14T12:52:01.247Z,22.12
2022-09-14T12:53:21.750Z,22.14
2022-09-14T12:54:32.003Z,22.17
2022-09-14T12:55:45.132Z,22.01
2022-09-14T12:57:05.244Z,22.03
2022-09-14T12:58:14.241Z,22.09
2022-09-14T12:59:31.004Z,22.08
2022-09-14T13:00:39.095Z,22.06
2022-09-14T13:02:06.104Z,22.12
2022-09-14T13:03:20.733Z,22.20
2022-09-14T13:04:28.937Z,22.25
2022-09-14T13:05:31.017Z,22.28
2022-09-14T13:06:37.807Z,22.27
2022-09-14T13:07:39.638Z,22.23
2022-09-14T13:08:46.444Z,22.19
2022-09-14T13:09:52.144Z,22.18
2022-09-14T13:10:56.546Z,22.10
2022-09-14T13:11:59.449Z,21.97
2022-09-14T13:13:04.354Z,21.84
2022-09-14T13:14:08.738Z,21.90
2022-09-14T13:15:16.619Z,21.85
2022-09-14T13:16:22.568Z,21.87
2022-09-14T13:17:24.470Z,21.86
2022-09-14T13:18:31.972Z,21.84
2022-09-14T13:19:34.380Z,21.91
2022-09-14T13:20:38.726Z,21.95
2022-09-14T13:21:48.313Z,22.00
2022-09-14T13:22:50.120Z,22.04
2022-09-14T13:23:54.570Z,22.04
2022-09-14T13:24:56.498Z,22.07
2022-09-14T13:26:01.066Z,22.12
2022-09-14T13:27:06.114Z,22.11
2022-09-14T13:28:11.632Z,22.17
2022-09-14T13:29:16.030Z,22.18
2022-09-14T13:30:20.237Z,22.18
2022-09-14T13:31:36.045Z,22.17
2022-09-14T13:32:42.743Z,22.07
2022-09-14T13:33:51.827Z,22.01
2022-09-14T13:34:54.922Z,21.96
2022-09-14T13:36:00.337Z,21.97
2022-09-14T13:37:04.807Z,22.01
2022-09-14T13:38:18.061Z,22.05
2022-09-14T13:39:25.189Z,22.05
2022-09-14T13:40:28.600Z,21.97
2022-09-14T13:41:33.308Z,21.97
2022-09-14T13:42:35.095Z,21.96
2022-09-14T13:43:39.619Z,21.85
2022-09-14T13:44:45.329Z,21.79
2022-09-14T13:45:49.942Z,21.76
2022-09-14T13:46:51.905Z,21.77
2022-09-14T13:47:56.731Z,21.70
2022-09-14T13:48:58.550Z,21.73
2022-09-14T13:50:03.211Z,21.77
2022-09-14T13:51:05.245Z,21.79
2022-09-14T13:52:38.547Z,21.79
2022-09-14T13:53:50.419Z,21.90
2022-09-14T13:55:10.702Z,21.91
2022-09-14T13:56:34.245Z,22.01
2022-09-14T13:57:36.964Z,22.12
2022-09-14T13:58:41.421Z,22.20
2022-09-14T14:00:04.653Z,22.26
2022-09-14T14:01:09.386Z,22.39
2022-09-14T14:02:13.201Z,22.42
2022-09-14T14:03:27.612Z,22.51
2022-09-14T14:04:39.182Z,22.59
2022-09-14T14:05:41.532Z,22.66
2022-09-14T14:06:46.184Z,22.64
2022-09-14T14:07:47.991Z,22.64
2022-09-14T14:08:56.420Z,22.68
2022-09-14T14:09:58.529Z,22.66
2022-09-14T14:11:03.148Z,22.51
2022-09-14T14:12:05.022Z,22.51
2022-09-14T14:13:09.394Z,22.48
2022-09-14T14:14:19.311Z,22.44